sensor_id;sensor_type;location;lat;lon;timestamp;pressure;altitude;pressure_sealevel;temperature;humidity
12624;BME280;6377;42.836;23.998;2022-07-03T00:00:10;96041.28;;;23.10;100.00
12624;BME280;6377;42.836;23.998;2022-07-03T00:02:38;96050.84;;;23.01;100.00
12624;BME280;6377;42.836;23.998;2022-07-03T00:05:06;96040.38;;;22.87;100.00
12624;BME280;6377;42.836;23.998;2022-07-03T00:07:37;96035.25;;;22.86;100.00
12624;BME280;6377;42.836;23.998;2022-07-03T00:10:06;96033.78;;;22.78;100.00
12624;BME280;6377;42.836;23.998;2022-07-03T00:12:37;96042.34;;;23.09;100.00
12624;BME280;6377;42.836;23.998;2022-07-03T00:15:08;96046.34;;;23.06;100.00
12624;BME280;6377;42.836;23.998;2022-07-03T00:17:35;96049.66;;;22.75;100.00
12624;BME280;6377;42.836;23.998;2022-07-03T00:20:03;96020.00;;;22.47;100.00
12624;BME280;6377;42.836;23.998;2022-07-03T00:22:33;96051.22;;;22.43;100.00
12624;BME280;6377;42.836;23.998;2022-07-03T00:25:05;96040.75;;;22.01;100.00
12624;BME280;6377;42.836;23.998;2022-07-03T00:27:34;96040.00;;;21.89;100.00
12624;BME280;6377;42.836;23.998;2022-07-03T00:30:03;96041.66;;;22.07;100.00
12624;BME280;6377;42.836;23.998;2022-07-03T00:32:38;96037.56;;;22.32;100.00
12624;BME280;6377;42.836;23.998;2022-07-03T00:35:07;96031.94;;;22.51;100.00
12624;BME280;6377;42.836;23.998;2022-07-03T00:37:34;96030.19;;;22.73;100.00
12624;BME280;6377;42.836;23.998;2022-07-03T00:40:02;96031.63;;;22.97;100.00
12624;BME280;6377;42.836;23.998;2022-07-03T00:42:30;96030.09;;;22.84;100.00
12624;BME280;6377;42.836;23.998;2022-07-03T00:45:00;96030.09;;;22.68;100.00
12624;BME280;6377;42.836;23.998;2022-07-03T00:47:27;96030.50;;;22.60;100.00
12624;BME280;6377;42.836;23.998;2022-07-03T00:49:57;96023.25;;;22.77;100.00
12624;BME280;6377;42.836;23.998;2022-07-03T00:52:24;96022.16;;;22.95;100.00
12624;BME280;6377;42.836;23.998;2022-07-03T00:54:53;96013.91;;;22.84;100.00
12624;BME280;6377;42.836;23.998;2022-07-03T00:57:35;95998.44;;;22.47;100.00
12624;BME280;6377;42.836;23.998;2022-07-03T01:00:13;96017.50;;;22.57;100.00
12624;BME280;6377;42.836;23.998;2022-07-03T01:02:51;96013.41;;;22.54;100.00
12624;BME280;6377;42.836;23.998;2022-07-03T01:05:32;96013.97;;;22.56;100.00
12624;BME280;6377;42.836;23.998;2022-07-03T01:08:20;96027.97;;;22.86;100.00
12624;BME280;6377;42.836;23.998;2022-07-03T01:10:55;96024.03;;;22.94;100.00
12624;BME280;6377;42.836;23.998;2022-07-03T01:13:37;96023.13;;;23.05;100.00
12624;BME280;6377;42.836;23.998;2022-07-03T01:16:07;96010.66;;;23.21;100.00
12624;BME280;6377;42.836;23.998;2022-07-03T01:18:42;96009.13;;;23.25;100.00
12624;BME280;6377;42.836;23.998;2022-07-03T01:21:26;95989.69;;;23.06;100.00
12624;BME280;6377;42.836;23.998;2022-07-03T01:24:26;95974.34;;;22.57;100.00
12624;BME280;6377;42.836;23.998;2022-07-03T01:27:04;96011.78;;;22.53;100.00
12624;BME280;6377;42.836;23.998;2022-07-03T01:29:51;96012.19;;;22.62;100.00
12624;BME280;6377;42.836;23.998;2022-07-03T01:32:23;95995.94;;;22.57;100.00
12624;BME280;6377;42.836;23.998;2022-07-03T01:34:52;96006.59;;;22.52;100.00
12624;BME280;6377;42.836;23.998;2022-07-03T01:37:35;95981.66;;;22.11;100.00
12624;BME280;6377;42.836;23.998;2022-07-03T01:40:08;96006.53;;;22.02;100.00
12624;BME280;6377;42.836;23.998;2022-07-03T01:42:37;95985.41;;;21.82;100.00
12624;BME280;6377;42.836;23.998;2022-07-03T01:45:09;96002.56;;;22.04;100.00
12624;BME280;6377;42.836;23.998;2022-07-03T01:47:40;95989.19;;;22.09;100.00
12624;BME280;6377;42.836;23.998;2022-07-03T01:50:11;96003.69;;;22.37;100.00
12624;BME280;6377;42.836;23.998;2022-07-03T01:52:41;96007.28;;;22.42;100.00
12624;BME280;6377;42.836;23.998;2022-07-03T01:55:09;96007.28;;;22.42;100.00
12624;BME280;6377;42.836;23.998;2022-07-03T01:57:42;96008.00;;;22.38;100.00
12624;BME280;6377;42.836;23.998;2022-07-03T02:00:11;96005.78;;;22.34;100.00
12624;BME280;6377;42.836;23.998;2022-07-03T02:02:42;96006.13;;;22.38;100.00
12624;BME280;6377;42.836;23.998;2022-07-03T02:05:19;96011.84;;;22.25;100.00
12624;BME280;6377;42.836;23.998;2022-07-03T02:07:54;96011.41;;;21.88;100.00
12624;BME280;6377;42.836;23.998;2022-07-03T02:10:29;96017.81;;;21.59;100.00
12624;BME280;6377;42.836;23.998;2022-07-03T02:13:01;96013.47;;;21.58;100.00
12624;BME280;6377;42.836;23.998;2022-07-03T02:15:30;96003.13;;;21.66;100.00
12624;BME280;6377;42.836;23.998;2022-07-03T02:18:21;95981.75;;;21.60;100.00
12624;BME280;6377;42.836;23.998;2022-07-03T02:21:02;96014.34;;;22.15;100.00
12624;BME280;6377;42.836;23.998;2022-07-03T02:23:32;96003.91;;;22.35;100.00
12624;BME280;6377;42.836;23.998;2022-07-03T02:26:03;96001.63;;;22.44;100.00
12624;BME280;6377;42.836;23.998;2022-07-03T02:28:44;96005.81;;;22.51;100.00
12624;BME280;6377;42.836;23.998;2022-07-03T02:31:18;96000.84;;;22.60;100.00
12624;BME280;6377;42.836;23.998;2022-07-03T02:33:50;96006.78;;;22.62;100.00
12624;BME280;6377;42.836;23.998;2022-07-03T02:36:23;96008.28;;;22.69;100.00
12624;BME280;6377;42.836;23.998;2022-07-03T02:38:57;95996.81;;;22.62;100.00
12624;BME280;6377;42.836;23.998;2022-07-03T02:41:29;96006.03;;;22.50;100.00
12624;BME280;6377;42.836;23.998;2022-07-03T02:44:16;96009.78;;;22.32;100.00
12624;BME280;6377;42.836;23.998;2022-07-03T02:46:57;95954.69;;;21.66;100.00
12624;BME280;6377;42.836;23.998;2022-07-03T02:49:42;96023.41;;;22.25;100.00
12624;BME280;6377;42.836;23.998;2022-07-03T02:52:17;96007.78;;;22.11;100.00
12624;BME280;6377;42.836;23.998;2022-07-03T02:54:48;96016.16;;;22.26;100.00
12624;BME280;6377;42.836;23.998;2022-07-03T02:57:18;96005.44;;;22.31;100.00
12624;BME280;6377;42.836;23.998;2022-07-03T02:59:52;96003.84;;;22.30;100.00
12624;BME280;6377;42.836;23.998;2022-07-03T03:02:32;96016.97;;;22.43;100.00
12624;BME280;6377;42.836;23.998;2022-07-03T03:05:06;96019.44;;;22.45;100.00
12624;BME280;6377;42.836;23.998;2022-07-03T03:07:45;96023.19;;;22.44;100.00
12624;BME280;6377;42.836;23.998;2022-07-03T03:10:19;95992.50;;;22.28;100.00
12624;BME280;6377;42.836;23.998;2022-07-03T03:12:52;95959.78;;;22.08;100.00
12624;BME280;6377;42.836;23.998;2022-07-03T03:15:31;96027.41;;;22.68;100.00
12624;BME280;6377;42.836;23.998;2022-07-03T03:18:02;96036.47;;;22.78;100.00
12624;BME280;6377;42.836;23.998;2022-07-03T03:20:31;96037.84;;;22.81;100.00
12624;BME280;6377;42.836;23.998;2022-07-03T03:23:17;96028.38;;;22.78;100.00
12624;BME280;6377;42.836;23.998;2022-07-03T03:25:46;95984.00;;;22.53;100.00
12624;BME280;6377;42.836;23.998;2022-07-03T03:28:14;96029.59;;;22.87;100.00
12624;BME280;6377;42.836;23.998;2022-07-03T03:30:47;96034.34;;;22.97;100.00
12624;BME280;6377;42.836;23.998;2022-07-03T03:33:15;96026.81;;;22.99;100.00
12624;BME280;6377;42.836;23.998;2022-07-03T03:35:43;96034.06;;;22.99;100.00
12624;BME280;6377;42.836;23.998;2022-07-03T03:38:11;96034.56;;;22.96;100.00
12624;BME280;6377;42.836;23.998;2022-07-03T03:40:39;96027.66;;;22.83;100.00
12624;BME280;6377;42.836;23.998;2022-07-03T03:43:06;95989.72;;;22.56;100.00
12624;BME280;6377;42.836;23.998;2022-07-03T03:45:34;96025.38;;;22.75;100.00
12624;BME280;6377;42.836;23.998;2022-07-03T03:48:03;96009.88;;;22.37;100.00
12624;BME280;6377;42.836;23.998;2022-07-03T03:50:31;96031.81;;;22.29;100.00
12624;BME280;6377;42.836;23.998;2022-07-03T03:52:59;96030.50;;;22.15;100.00
12624;BME280;6377;42.836;23.998;2022-07-03T03:55:33;96026.06;;;21.81;100.00
12624;BME280;6377;42.836;23.998;2022-07-03T03:58:01;95994.44;;;21.48;100.00
12624;BME280;6377;42.836;23.998;2022-07-03T04:00:30;95991.19;;;21.74;100.00
12624;BME280;6377;42.836;23.998;2022-07-03T04:02:57;96033.59;;;22.07;100.00
12624;BME280;6377;42.836;23.998;2022-07-03T04:05:26;96030.78;;;22.02;100.00
12624;BME280;6377;42.836;23.998;2022-07-03T04:07:54;96026.75;;;22.16;100.00
12624;BME280;6377;42.836;23.998;2022-07-03T04:10:23;96024.31;;;22.31;100.00
12624;BME280;6377;42.836;23.998;2022-07-03T04:12:51;96021.63;;;22.31;100.00
12624;BME280;6377;42.836;23.998;2022-07-03T04:15:18;96030.50;;;22.15;100.00
12624;BME280;6377;42.836;23.998;2022-07-03T04:17:50;96031.81;;;22.12;100.00
12624;BME280;6377;42.836;23.998;2022-07-03T04:20:17;96032.03;;;22.11;100.00
12624;BME280;6377;42.836;23.998;2022-07-03T04:22:46;95978.13;;;21.94;100.00
12624;BME280;6377;42.836;23.998;2022-07-03T04:25:16;96026.50;;;22.34;100.00
12624;BME280;6377;42.836;23.998;2022-07-03T04:27:43;96033.88;;;22.39;100.00
12624;BME280;6377;42.836;23.998;2022-07-03T04:30:12;96026.38;;;22.41;100.00
12624;BME280;6377;42.836;23.998;2022-07-03T04:32:40;95998.84;;;22.22;100.00
12624;BME280;6377;42.836;23.998;2022-07-03T04:35:08;96025.72;;;22.33;100.00
12624;BME280;6377;42.836;23.998;2022-07-03T04:37:35;96031.25;;;22.27;100.00
12624;BME280;6377;42.836;23.998;2022-07-03T04:40:06;96035.59;;;22.28;100.00
12624;BME280;6377;42.836;23.998;2022-07-03T04:42:33;96032.78;;;22.23;100.00
12624;BME280;6377;42.836;23.998;2022-07-03T04:45:01;96031.75;;;22.24;100.00
12624;BME280;6377;42.836;23.998;2022-07-03T04:47:28;96024.09;;;22.32;100.00
12624;BME280;6377;42.836;23.998;2022-07-03T04:49:55;96013.53;;;22.31;100.00
12624;BME280;6377;42.836;23.998;2022-07-03T04:52:23;96032.22;;;22.21;100.00
12624;BME280;6377;42.836;23.998;2022-07-03T04:54:50;96035.59;;;22.28;100.00
12624;BME280;6377;42.836;23.998;2022-07-03T04:57:19;96031.53;;;22.42;100.00
12624;BME280;6377;42.836;23.998;2022-07-03T04:59:46;96025.25;;;22.53;100.00
12624;BME280;6377;42.836;23.998;2022-07-03T05:02:14;96027.38;;;22.51;100.00
12624;BME280;6377;42.836;23.998;2022-07-03T05:04:41;96024.56;;;22.46;100.00
12624;BME280;6377;42.836;23.998;2022-07-03T05:07:09;96033.66;;;22.57;100.00
12624;BME280;6377;42.836;23.998;2022-07-03T05:09:36;96033.84;;;22.67;100.00
12624;BME280;6377;42.836;23.998;2022-07-03T05:12:05;96031.50;;;22.70;100.00
12624;BME280;6377;42.836;23.998;2022-07-03T05:14:34;96030.34;;;22.66;100.00
12624;BME280;6377;42.836;23.998;2022-07-03T05:17:01;96033.28;;;22.65;100.00
12624;BME280;6377;42.836;23.998;2022-07-03T05:19:29;96026.09;;;22.70;100.00
12624;BME280;6377;42.836;23.998;2022-07-03T05:21:56;95914.72;;;22.03;100.00
12624;BME280;6377;42.836;23.998;2022-07-03T05:24:23;96029.84;;;22.86;100.00
12624;BME280;6377;42.836;23.998;2022-07-03T05:26:51;96041.84;;;22.78;100.00
12624;BME280;6377;42.836;23.998;2022-07-03T05:29:18;96037.69;;;22.54;100.00
12624;BME280;6377;42.836;23.998;2022-07-03T05:31:47;96014.41;;;22.20;100.00
12624;BME280;6377;42.836;23.998;2022-07-03T05:34:14;96052.69;;;22.33;100.00
12624;BME280;6377;42.836;23.998;2022-07-03T05:36:42;96019.94;;;22.13;100.00
12624;BME280;6377;42.836;23.998;2022-07-03T05:39:09;96045.84;;;22.43;100.00
12624;BME280;6377;42.836;23.998;2022-07-03T05:41:53;96038.47;;;22.55;100.00
12624;BME280;6377;42.836;23.998;2022-07-03T05:44:21;96057.34;;;22.55;100.00
12624;BME280;6377;42.836;23.998;2022-07-03T05:46:50;96052.16;;;22.65;100.00
12624;BME280;6377;42.836;23.998;2022-07-03T05:49:17;96059.66;;;22.63;100.00
12624;BME280;6377;42.836;23.998;2022-07-03T05:51:45;96050.75;;;22.62;100.00
12624;BME280;6377;42.836;23.998;2022-07-03T05:54:12;96049.53;;;22.70;100.00
12624;BME280;6377;42.836;23.998;2022-07-03T05:56:40;96055.06;;;22.63;100.00
12624;BME280;6377;42.836;23.998;2022-07-03T05:59:07;96055.69;;;22.65;100.00
12624;BME280;6377;42.836;23.998;2022-07-03T06:01:35;96053.81;;;22.66;100.00
12624;BME280;6377;42.836;23.998;2022-07-03T06:04:04;96061.63;;;22.67;100.00
12624;BME280;6377;42.836;23.998;2022-07-03T06:06:31;96060.44;;;22.75;100.00
12624;BME280;6377;42.836;23.998;2022-07-03T06:09:02;96061.06;;;22.82;100.00
12624;BME280;6377;42.836;23.998;2022-07-03T06:11:29;96065.56;;;22.76;100.00
12624;BME280;6377;42.836;23.998;2022-07-03T06:13:57;95972.28;;;22.14;100.00
12624;BME280;6377;42.836;23.998;2022-07-03T06:16:24;96059.84;;;22.73;100.00
12624;BME280;6377;42.836;23.998;2022-07-03T06:18:52;96037.00;;;22.64;100.00
12624;BME280;6377;42.836;23.998;2022-07-03T06:21:20;96068.59;;;22.80;100.00
12624;BME280;6377;42.836;23.998;2022-07-03T06:23:48;96075.84;;;22.63;100.00
12624;BME280;6377;42.836;23.998;2022-07-03T06:26:16;96070.81;;;22.55;100.00
12624;BME280;6377;42.836;23.998;2022-07-03T06:28:44;96074.34;;;22.55;100.00
12624;BME280;6377;42.836;23.998;2022-07-03T06:31:11;96068.53;;;22.63;100.00
12624;BME280;6377;42.836;23.998;2022-07-03T06:33:42;96057.25;;;22.50;100.00
12624;BME280;6377;42.836;23.998;2022-07-03T06:36:09;96066.09;;;22.45;100.00
12624;BME280;6377;42.836;23.998;2022-07-03T06:38:38;96061.25;;;22.47;100.00
12624;BME280;6377;42.836;23.998;2022-07-03T06:41:06;96050.16;;;22.44;100.00
12624;BME280;6377;42.836;23.998;2022-07-03T06:43:33;96051.13;;;22.38;100.00
12624;BME280;6377;42.836;23.998;2022-07-03T06:46:01;96056.09;;;22.29;100.00
12624;BME280;6377;42.836;23.998;2022-07-03T06:48:28;96064.03;;;22.36;100.00
12624;BME280;6377;42.836;23.998;2022-07-03T06:50:56;96060.09;;;22.43;100.00
12624;BME280;6377;42.836;23.998;2022-07-03T06:53:23;96059.13;;;22.49;100.00
12624;BME280;6377;42.836;23.998;2022-07-03T06:55:52;96063.16;;;22.63;100.00
12624;BME280;6377;42.836;23.998;2022-07-03T06:58:20;96060.44;;;22.75;100.00
12624;BME280;6377;42.836;23.998;2022-07-03T07:00:47;96064.53;;;22.77;100.00
12624;BME280;6377;42.836;23.998;2022-07-03T07:03:15;96056.84;;;22.86;100.00
12624;BME280;6377;42.836;23.998;2022-07-03T07:05:48;95970.41;;;22.14;100.00
12624;BME280;6377;42.836;23.998;2022-07-03T07:08:16;96055.31;;;22.62;100.00
12624;BME280;6377;42.836;23.998;2022-07-03T07:10:43;96060.75;;;22.78;100.00
12624;BME280;6377;42.836;23.998;2022-07-03T07:13:12;96057.78;;;22.97;100.00
12624;BME280;6377;42.836;23.998;2022-07-03T07:15:39;96060.78;;;23.17;100.00
12624;BME280;6377;42.836;23.998;2022-07-03T07:18:10;96044.81;;;23.32;100.00
12624;BME280;6377;42.836;23.998;2022-07-03T07:20:40;96033.22;;;23.31;100.00
12624;BME280;6377;42.836;23.998;2022-07-03T07:23:08;96053.13;;;23.64;100.00
12624;BME280;6377;42.836;23.998;2022-07-03T07:28:03;96040.75;;;24.11;100.00
12624;BME280;6377;42.836;23.998;2022-07-03T07:30:32;95930.88;;;23.47;100.00
12624;BME280;6377;42.836;23.998;2022-07-03T07:33:00;96031.09;;;24.47;100.00
12624;BME280;6377;42.836;23.998;2022-07-03T07:35:27;96037.84;;;24.44;100.00
12624;BME280;6377;42.836;23.998;2022-07-03T07:37:54;96034.25;;;24.66;100.00
12624;BME280;6377;42.836;23.998;2022-07-03T07:40:22;96026.50;;;24.74;100.00
12624;BME280;6377;42.836;23.998;2022-07-03T07:42:50;96017.84;;;24.77;100.00
12624;BME280;6377;42.836;23.998;2022-07-03T07:45:17;96019.91;;;24.97;100.00
12624;BME280;6377;42.836;23.998;2022-07-03T07:47:46;96005.25;;;24.93;100.00
12624;BME280;6377;42.836;23.998;2022-07-03T07:50:14;95934.19;;;24.66;100.00
12624;BME280;6377;42.836;23.998;2022-07-03T07:52:45;95971.75;;;24.99;100.00
12624;BME280;6377;42.836;23.998;2022-07-03T07:55:12;95997.59;;;25.22;100.00
12624;BME280;6377;42.836;23.998;2022-07-03T07:57:40;96012.03;;;25.37;100.00
12624;BME280;6377;42.836;23.998;2022-07-03T08:00:09;96019.47;;;25.52;100.00
12624;BME280;6377;42.836;23.998;2022-07-03T08:02:41;95984.84;;;25.12;100.00
12624;BME280;6377;42.836;23.998;2022-07-03T08:05:27;95986.28;;;25.30;100.00
12624;BME280;6377;42.836;23.998;2022-07-03T08:08:08;96007.28;;;25.54;100.00
12624;BME280;6377;42.836;23.998;2022-07-03T08:10:38;96019.53;;;25.67;100.00
12624;BME280;6377;42.836;23.998;2022-07-03T08:13:06;96014.22;;;25.40;100.00
12624;BME280;6377;42.836;23.998;2022-07-03T08:15:33;95979.13;;;25.08;100.00
12624;BME280;6377;42.836;23.998;2022-07-03T08:18:05;95987.59;;;25.22;100.00
12624;BME280;6377;42.836;23.998;2022-07-03T08:20:35;95968.84;;;25.11;100.00
12624;BME280;6377;42.836;23.998;2022-07-03T08:23:04;95979.22;;;25.29;100.00
12624;BME280;6377;42.836;23.998;2022-07-03T08:25:35;95998.34;;;25.54;100.00
12624;BME280;6377;42.836;23.998;2022-07-03T08:28:03;96016.34;;;25.80;100.00
12624;BME280;6377;42.836;23.998;2022-07-03T08:30:36;96019.03;;;25.75;100.00
12624;BME280;6377;42.836;23.998;2022-07-03T08:33:04;95979.13;;;25.55;100.00
12624;BME280;6377;42.836;23.998;2022-07-03T08:35:32;96015.41;;;26.16;100.00
12624;BME280;6377;42.836;23.998;2022-07-03T08:38:01;96012.72;;;26.27;100.00
12624;BME280;6377;42.836;23.998;2022-07-03T08:40:31;96021.41;;;26.49;100.00
12624;BME280;6377;42.836;23.998;2022-07-03T08:42:59;95970.69;;;26.39;100.00
12624;BME280;6377;42.836;23.998;2022-07-03T08:45:30;96021.44;;;26.69;100.00
12624;BME280;6377;42.836;23.998;2022-07-03T08:47:59;95988.34;;;26.62;100.00
12624;BME280;6377;42.836;23.998;2022-07-03T08:50:26;95995.09;;;26.39;95.59
12624;BME280;6377;42.836;23.998;2022-07-03T08:52:54;95964.44;;;26.34;97.37
12624;BME280;6377;42.836;23.998;2022-07-03T08:55:23;95975.56;;;26.57;96.69
12624;BME280;6377;42.836;23.998;2022-07-03T08:57:50;95978.56;;;26.71;96.93
12624;BME280;6377;42.836;23.998;2022-07-03T09:00:21;95987.78;;;26.70;92.43
12624;BME280;6377;42.836;23.998;2022-07-03T09:02:49;96019.84;;;26.93;93.34
12624;BME280;6377;42.836;23.998;2022-07-03T09:05:17;95990.50;;;26.65;93.67
12624;BME280;6377;42.836;23.998;2022-07-03T09:07:46;95987.00;;;26.85;96.51
12624;BME280;6377;42.836;23.998;2022-07-03T09:10:16;95978.00;;;26.69;98.64
12624;BME280;6377;42.836;23.998;2022-07-03T09:12:46;95973.97;;;26.92;98.12
12624;BME280;6377;42.836;23.998;2022-07-03T09:15:14;95991.84;;;27.13;100.00
12624;BME280;6377;42.836;23.998;2022-07-03T09:17:56;95975.03;;;27.06;98.53
12624;BME280;6377;42.836;23.998;2022-07-03T09:20:29;96008.00;;;27.73;94.62
12624;BME280;6377;42.836;23.998;2022-07-03T09:23:12;95976.59;;;27.47;91.73
12624;BME280;6377;42.836;23.998;2022-07-03T09:25:58;96002.19;;;27.95;93.97
12624;BME280;6377;42.836;23.998;2022-07-03T09:28:44;96006.25;;;28.03;91.27
12624;BME280;6377;42.836;23.998;2022-07-03T09:31:13;96003.53;;;27.98;86.79
12624;BME280;6377;42.836;23.998;2022-07-03T09:33:50;95990.91;;;28.22;85.05
12624;BME280;6377;42.836;23.998;2022-07-03T09:36:17;95999.16;;;28.51;80.27
12624;BME280;6377;42.836;23.998;2022-07-03T09:38:45;95972.38;;;28.29;80.49
12624;BME280;6377;42.836;23.998;2022-07-03T09:41:13;95980.66;;;28.48;80.62
12624;BME280;6377;42.836;23.998;2022-07-03T09:43:42;95996.59;;;28.69;75.38
12624;BME280;6377;42.836;23.998;2022-07-03T09:46:11;95987.16;;;28.90;78.67
12624;BME280;6377;42.836;23.998;2022-07-03T09:48:40;95994.31;;;29.10;76.71
12624;BME280;6377;42.836;23.998;2022-07-03T09:51:13;95929.81;;;28.77;76.78
12624;BME280;6377;42.836;23.998;2022-07-03T09:53:52;95997.94;;;29.34;73.40
12624;BME280;6377;42.836;23.998;2022-07-03T09:56:20;95990.22;;;29.41;70.80
12624;BME280;6377;42.836;23.998;2022-07-03T09:59:03;95981.94;;;29.75;68.03
12624;BME280;6377;42.836;23.998;2022-07-03T10:01:33;95990.38;;;29.74;68.33
12624;BME280;6377;42.836;23.998;2022-07-03T10:04:12;95990.53;;;29.64;69.08
12624;BME280;6377;42.836;23.998;2022-07-03T10:06:49;95970.94;;;29.85;65.54
12624;BME280;6377;42.836;23.998;2022-07-03T10:09:19;95968.06;;;29.95;64.98
12624;BME280;6377;42.836;23.998;2022-07-03T10:11:47;95959.22;;;29.80;60.93
12624;BME280;6377;42.836;23.998;2022-07-03T10:14:17;95975.81;;;30.26;61.97
12624;BME280;6377;42.836;23.998;2022-07-03T10:16:47;95961.44;;;30.20;60.41
12624;BME280;6377;42.836;23.998;2022-07-03T10:19:17;95966.88;;;30.76;62.35
12624;BME280;6377;42.836;23.998;2022-07-03T10:21:51;95977.81;;;30.20;58.94
12624;BME280;6377;42.836;23.998;2022-07-03T10:24:21;95953.97;;;30.63;53.79
12624;BME280;6377;42.836;23.998;2022-07-03T10:26:50;95950.00;;;30.56;57.22
12624;BME280;6377;42.836;23.998;2022-07-03T10:29:20;95961.06;;;30.27;60.95
12624;BME280;6377;42.836;23.998;2022-07-03T10:31:50;95836.59;;;29.14;63.09
12624;BME280;6377;42.836;23.998;2022-07-03T10:34:20;95958.47;;;29.98;64.63
12624;BME280;6377;42.836;23.998;2022-07-03T10:36:50;95960.91;;;30.18;63.48
12624;BME280;6377;42.836;23.998;2022-07-03T10:39:36;95960.72;;;30.52;60.92
12624;BME280;6377;42.836;23.998;2022-07-03T10:42:08;95960.53;;;30.25;61.19
12624;BME280;6377;42.836;23.998;2022-07-03T10:45:09;95933.75;;;30.27;59.69
12624;BME280;6377;42.836;23.998;2022-07-03T10:47:43;95962.78;;;30.23;60.23
12624;BME280;6377;42.836;23.998;2022-07-03T10:50:14;95957.22;;;30.28;60.24
12624;BME280;6377;42.836;23.998;2022-07-03T10:52:42;95957.91;;;30.20;59.10
12624;BME280;6377;42.836;23.998;2022-07-03T10:55:12;95952.00;;;30.31;58.96
12624;BME280;6377;42.836;23.998;2022-07-03T10:58:07;95952.22;;;30.35;58.53
12624;BME280;6377;42.836;23.998;2022-07-03T11:00:52;95952.06;;;30.26;57.54
12624;BME280;6377;42.836;23.998;2022-07-03T11:03:52;95958.56;;;30.12;57.09
12624;BME280;6377;42.836;23.998;2022-07-03T11:09:28;95954.09;;;29.55;59.59
12624;BME280;6377;42.836;23.998;2022-07-03T11:11:56;95953.81;;;29.32;62.36
12624;BME280;6377;42.836;23.998;2022-07-03T11:14:24;95951.94;;;29.52;62.11
12624;BME280;6377;42.836;23.998;2022-07-03T11:17:18;95947.25;;;29.33;61.70
12624;BME280;6377;42.836;23.998;2022-07-03T11:19:48;95946.22;;;29.01;65.49
12624;BME280;6377;42.836;23.998;2022-07-03T11:22:33;95947.22;;;29.10;66.06
12624;BME280;6377;42.836;23.998;2022-07-03T11:25:07;95946.75;;;29.03;66.84
12624;BME280;6377;42.836;23.998;2022-07-03T11:27:35;95945.88;;;29.07;66.88
12624;BME280;6377;42.836;23.998;2022-07-03T11:30:04;95952.59;;;28.91;67.15
12624;BME280;6377;42.836;23.998;2022-07-03T11:32:45;95943.91;;;29.13;68.34
12624;BME280;6377;42.836;23.998;2022-07-03T11:38:25;95928.53;;;29.27;63.61
12624;BME280;6377;42.836;23.998;2022-07-03T11:40:55;95945.69;;;29.27;65.46
12624;BME280;6377;42.836;23.998;2022-07-03T11:43:31;95929.47;;;28.88;66.02
12624;BME280;6377;42.836;23.998;2022-07-03T11:46:00;95922.84;;;28.95;65.27
12624;BME280;6377;42.836;23.998;2022-07-03T11:48:29;95921.59;;;29.11;63.28
12624;BME280;6377;42.836;23.998;2022-07-03T11:51:01;95862.16;;;28.65;61.95
12624;BME280;6377;42.836;23.998;2022-07-03T11:53:44;95920.66;;;28.97;60.92
12624;BME280;6377;42.836;23.998;2022-07-03T11:56:13;95937.03;;;28.91;64.00
12624;BME280;6377;42.836;23.998;2022-07-03T11:58:45;95929.69;;;28.92;62.60
12624;BME280;6377;42.836;23.998;2022-07-03T12:01:31;95936.94;;;29.02;63.19
12624;BME280;6377;42.836;23.998;2022-07-03T12:04:08;95927.59;;;28.84;63.08
12624;BME280;6377;42.836;23.998;2022-07-03T12:06:37;95782.34;;;28.17;62.11
12624;BME280;6377;42.836;23.998;2022-07-03T12:09:14;95924.38;;;29.06;61.60
12624;BME280;6377;42.836;23.998;2022-07-03T12:11:52;95920.84;;;29.05;63.51
12624;BME280;6377;42.836;23.998;2022-07-03T12:14:37;95867.00;;;28.73;64.47
12624;BME280;6377;42.836;23.998;2022-07-03T12:17:06;95910.53;;;29.02;63.04
12624;BME280;6377;42.836;23.998;2022-07-03T12:19:48;95842.38;;;28.55;60.64
12624;BME280;6377;42.836;23.998;2022-07-03T12:22:36;95856.28;;;28.82;61.29
12624;BME280;6377;42.836;23.998;2022-07-03T12:25:07;95921.16;;;29.51;60.42
12624;BME280;6377;42.836;23.998;2022-07-03T12:27:39;95888.56;;;29.65;59.19
12624;BME280;6377;42.836;23.998;2022-07-03T12:30:09;95879.09;;;29.81;58.98
12624;BME280;6377;42.836;23.998;2022-07-03T12:32:38;95914.91;;;30.12;62.37
12624;BME280;6377;42.836;23.998;2022-07-03T12:35:07;95902.91;;;29.94;60.52
12624;BME280;6377;42.836;23.998;2022-07-03T12:37:37;95846.28;;;29.86;59.82
12624;BME280;6377;42.836;23.998;2022-07-03T12:40:09;95903.97;;;30.81;60.62
12624;BME280;6377;42.836;23.998;2022-07-03T12:42:43;95866.50;;;31.28;56.87
12624;BME280;6377;42.836;23.998;2022-07-03T12:45:13;95893.28;;;31.94;51.44
12624;BME280;6377;42.836;23.998;2022-07-03T12:47:41;95894.25;;;32.69;46.94
12624;BME280;6377;42.836;23.998;2022-07-03T12:50:09;95853.72;;;33.11;45.53
12624;BME280;6377;42.836;23.998;2022-07-03T12:52:50;95885.06;;;33.36;44.68
12624;BME280;6377;42.836;23.998;2022-07-03T12:55:26;95883.34;;;33.57;44.64
12624;BME280;6377;42.836;23.998;2022-07-03T12:58:14;95892.53;;;34.17;43.36
12624;BME280;6377;42.836;23.998;2022-07-03T13:00:59;95890.78;;;34.13;41.43
12624;BME280;6377;42.836;23.998;2022-07-03T13:03:27;95883.63;;;34.03;41.70
12624;BME280;6377;42.836;23.998;2022-07-03T13:05:55;95850.22;;;33.93;42.17
12624;BME280;6377;42.836;23.998;2022-07-03T13:08:29;95866.38;;;34.63;39.56
12624;BME280;6377;42.836;23.998;2022-07-03T13:10:59;95869.78;;;35.06;37.83
12624;BME280;6377;42.836;23.998;2022-07-03T13:13:46;95842.66;;;35.42;36.39
12624;BME280;6377;42.836;23.998;2022-07-03T13:16:25;95871.16;;;36.38;35.75
12624;BME280;6377;42.836;23.998;2022-07-03T13:19:09;95862.72;;;36.76;36.70
12624;BME280;6377;42.836;23.998;2022-07-03T13:21:37;95860.56;;;36.28;35.39
12624;BME280;6377;42.836;23.998;2022-07-03T13:24:05;95850.41;;;35.99;35.08